Alumbrera, Argentina
Current Conditions -  °F | °C
As of 3:00 PM on Saturday 20 Dec 2014 (Local Time) from SANT Reporting Station
Few Clouds Few Clouds  
Wind Chill: 93°   Ceiling: Unl
Heat Index: 103°   Visibility: 6mi
Dew Point: 73°   Wind: 7mph
Humidity: 52%   Direction: 180°S
Pressure: 29.44"   Gusts: NA
Location:  27.52°S, 66.03°W
Report Text: SANT 201800Z 18006KT 9999 FEW040 FEW050TCU 34/23 Q0997
Loading
Personal Weather Stations






























Interactive Weather Map New forecast layout! Learn more

10-Day Weather Forecast

Advertisements
Track Severe Weather on mobile